createdAt,value
2023-01-07T00:01:36.341Z,3.00
2023-01-07T00:04:05.680Z,1.80
2023-01-07T00:06:35.829Z,3.13
2023-01-07T00:09:05.271Z,2.42
2023-01-07T00:11:37.692Z,3.25
2023-01-07T00:14:07.046Z,2.47
2023-01-07T00:16:35.204Z,2.33
2023-01-07T00:19:04.258Z,4.50
2023-01-07T00:21:31.711Z,2.88
2023-01-07T00:24:00.855Z,1.70
2023-01-07T00:26:31.313Z,2.38
2023-01-07T00:28:58.749Z,1.85
2023-01-07T00:31:28.750Z,3.00
2023-01-07T00:33:58.978Z,5.10
2023-01-07T00:36:28.779Z,3.08
2023-01-07T00:39:00.726Z,2.15
2023-01-07T00:41:27.847Z,4.28
2023-01-07T00:43:55.016Z,3.40
2023-01-07T00:46:22.449Z,4.30
2023-01-07T00:48:49.931Z,2.85
2023-01-07T00:51:18.048Z,1.77
2023-01-07T00:53:44.933Z,2.80
2023-01-07T00:56:14.457Z,2.20
2023-01-07T00:58:41.922Z,2.45
2023-01-07T01:01:10.571Z,3.20
2023-01-07T01:03:38.548Z,2.55
2023-01-07T01:06:08.690Z,3.55
2023-01-07T01:08:35.936Z,2.92
2023-01-07T01:11:05.337Z,2.20
2023-01-07T01:13:33.436Z,1.85
2023-01-07T01:16:00.958Z,1.75
2023-01-07T01:18:28.088Z,1.80
2023-01-07T01:20:55.182Z,1.70
2023-01-07T01:23:22.497Z,1.65
2023-01-07T01:25:49.355Z,1.30
2023-01-07T01:28:16.190Z,3.00
2023-01-07T01:30:43.086Z,1.50
2023-01-07T01:33:11.304Z,1.15
2023-01-07T01:35:41.752Z,1.80
2023-01-07T01:38:09.702Z,1.10
2023-01-07T01:40:37.458Z,1.25
2023-01-07T01:43:23.881Z,0.88
2023-01-07T01:45:50.876Z,1.27
2023-01-07T01:48:20.614Z,0.77
2023-01-07T01:50:48.954Z,0.85
2023-01-07T01:53:34.046Z,1.23
2023-01-07T01:56:07.278Z,1.45
2023-01-07T02:01:04.200Z,1.60
2023-01-07T02:03:35.170Z,1.08
2023-01-07T02:06:03.656Z,0.88
2023-01-07T02:08:30.734Z,1.00
2023-01-07T02:11:32.321Z,0.75
2023-01-07T02:14:21.846Z,4.88
2023-01-07T02:17:03.546Z,1.10
2023-01-07T02:20:07.730Z,1.70
2023-01-07T02:22:55.542Z,0.82
2023-01-07T02:25:59.682Z,1.55
2023-01-07T02:29:01.165Z,1.70
2023-01-07T02:32:04.999Z,1.02
2023-01-07T02:35:04.908Z,1.00
2023-01-07T02:37:55.124Z,0.77
2023-01-07T02:40:48.759Z,0.60
2023-01-07T02:43:40.968Z,0.93
2023-01-07T02:46:19.484Z,1.02
2023-01-07T02:48:47.154Z,0.82
2023-01-07T02:51:14.017Z,0.70
2023-01-07T02:53:43.648Z,1.05
2023-01-07T02:56:36.284Z,0.52
2023-01-07T02:59:45.713Z,0.93
2023-01-07T03:02:19.152Z,0.65
2023-01-07T03:05:16.491Z,0.57
2023-01-07T03:08:05.002Z,1.00
2023-01-07T03:10:37.367Z,0.50
2023-01-07T03:13:12.954Z,1.58
2023-01-07T03:15:45.101Z,0.82
2023-01-07T03:18:26.488Z,0.93
2023-01-07T03:21:06.261Z,1.05
2023-01-07T03:23:37.069Z,1.45
2023-01-07T03:26:06.492Z,1.27
2023-01-07T03:28:37.415Z,0.93
2023-01-07T03:31:08.505Z,0.90
2023-01-07T03:33:54.133Z,1.15
2023-01-07T03:36:25.999Z,0.52
2023-01-07T03:38:55.527Z,1.30
2023-01-07T03:41:41.969Z,1.00
2023-01-07T03:44:08.905Z,1.23
2023-01-07T03:46:37.161Z,0.70
2023-01-07T03:49:04.858Z,1.45
2023-01-07T03:51:33.237Z,1.25
2023-01-07T03:54:00.466Z,1.13
2023-01-07T03:56:27.655Z,3.97
2023-01-07T03:58:54.449Z,2.92
2023-01-07T04:01:21.495Z,1.75
2023-01-07T04:03:48.499Z,1.00
2023-01-07T04:06:16.955Z,1.13
2023-01-07T04:08:43.806Z,1.05
2023-01-07T04:11:10.886Z,1.25
2023-01-07T04:13:38.534Z,1.83
2023-01-07T04:16:05.724Z,0.82
2023-01-07T04:18:32.537Z,1.60
2023-01-07T04:20:59.434Z,1.38
2023-01-07T04:23:26.356Z,0.90
2023-01-07T04:25:54.955Z,1.23
2023-01-07T04:28:24.639Z,1.10
2023-01-07T04:30:51.718Z,1.75
2023-01-07T04:33:19.376Z,1.08
2023-01-07T04:35:47.118Z,0.68
2023-01-07T04:38:14.168Z,0.73
2023-01-07T04:40:41.017Z,0.85
2023-01-07T04:43:09.405Z,1.05
2023-01-07T04:45:36.637Z,1.23
2023-01-07T04:48:03.785Z,0.75
2023-01-07T04:50:30.783Z,0.68
2023-01-07T04:52:58.150Z,1.00
2023-01-07T04:55:25.311Z,0.98
2023-01-07T04:57:52.488Z,1.42
2023-01-07T05:00:19.801Z,1.15
2023-01-07T05:02:49.398Z,1.52
2023-01-07T05:05:16.951Z,1.52
2023-01-07T05:07:44.854Z,1.17
2023-01-07T05:10:12.347Z,1.55
2023-01-07T05:12:39.213Z,1.10
2023-01-07T05:15:09.023Z,1.50
2023-01-07T05:17:38.778Z,1.23
2023-01-07T05:20:08.193Z,1.45
2023-01-07T05:22:36.944Z,1.23
2023-01-07T05:25:04.164Z,1.42
2023-01-07T05:27:31.937Z,1.90
2023-01-07T05:30:00.113Z,1.67
2023-01-07T05:32:27.116Z,1.40
2023-01-07T05:34:54.046Z,1.17
2023-01-07T05:37:21.632Z,1.55
2023-01-07T05:39:48.551Z,1.00
2023-01-07T05:42:18.555Z,1.08
2023-01-07T05:44:45.570Z,1.55
2023-01-07T05:47:12.613Z,0.65
2023-01-07T05:49:39.527Z,1.05
2023-01-07T05:52:06.372Z,0.98
2023-01-07T05:54:33.234Z,1.80
2023-01-07T05:57:00.062Z,1.27
2023-01-07T05:59:27.011Z,1.02
2023-01-07T06:01:53.895Z,1.50
2023-01-07T06:04:20.826Z,2.15
2023-01-07T06:06:47.633Z,1.30
2023-01-07T06:09:14.555Z,1.33
2023-01-07T06:11:41.412Z,1.20
2023-01-07T06:14:08.247Z,1.00
2023-01-07T06:16:35.469Z,1.20
2023-01-07T06:19:02.322Z,1.35
2023-01-07T06:21:29.446Z,1.65
2023-01-07T06:23:56.621Z,1.42
2023-01-07T06:26:23.779Z,1.75
2023-01-07T06:28:52.380Z,2.13
2023-01-07T06:31:19.243Z,0.77
2023-01-07T06:33:46.089Z,1.00
2023-01-07T06:36:13.054Z,1.35
2023-01-07T06:38:41.640Z,1.27
2023-01-07T06:41:09.475Z,1.23
2023-01-07T06:43:36.312Z,1.50
2023-01-07T06:46:03.394Z,2.00
2023-01-07T06:48:30.307Z,2.38
2023-01-07T06:50:57.127Z,1.52
2023-01-07T06:53:24.169Z,1.70
2023-01-07T06:55:51.655Z,1.02
2023-01-07T06:58:18.846Z,1.45
2023-01-07T07:00:45.850Z,0.77
2023-01-07T07:03:12.783Z,1.10
2023-01-07T07:05:39.819Z,0.70
2023-01-07T07:08:06.619Z,0.68
2023-01-07T07:10:33.902Z,0.90
2023-01-07T07:13:00.802Z,0.80
2023-01-07T07:15:27.609Z,0.80
2023-01-07T07:17:54.413Z,2.78
2023-01-07T07:20:21.286Z,0.77
2023-01-07T07:22:49.201Z,0.70
2023-01-07T07:25:16.471Z,0.80
2023-01-07T07:27:46.946Z,0.68
2023-01-07T07:30:15.220Z,0.80
2023-01-07T07:32:42.896Z,0.95
2023-01-07T07:35:10.850Z,1.00
2023-01-07T07:37:38.003Z,0.90
2023-01-07T07:40:06.047Z,1.38
2023-01-07T07:43:10.378Z,1.33
2023-01-07T07:45:20.170Z,0.65
2023-01-07T07:47:47.156Z,0.80
2023-01-07T07:50:14.009Z,0.93
2023-01-07T07:52:40.949Z,0.65
2023-01-07T07:55:20.249Z,0.75
2023-01-07T07:57:57.072Z,1.38
2023-01-07T08:00:24.573Z,1.25
2023-01-07T08:02:51.363Z,0.82
2023-01-07T08:05:18.362Z,1.25
2023-01-07T08:07:45.150Z,1.35
2023-01-07T08:10:11.986Z,0.60
2023-01-07T08:12:39.342Z,0.70
2023-01-07T08:15:08.219Z,0.85
2023-01-07T08:17:36.417Z,1.33
2023-01-07T08:20:07.456Z,1.50
2023-01-07T08:22:34.890Z,1.20
2023-01-07T08:25:02.099Z,1.30
2023-01-07T08:27:29.386Z,0.95
2023-01-07T08:29:57.034Z,1.65
2023-01-07T08:32:24.177Z,2.67
2023-01-07T08:34:51.064Z,1.90
2023-01-07T08:37:17.903Z,1.65
2023-01-07T08:39:44.771Z,2.03
2023-01-07T08:42:11.636Z,2.30
2023-01-07T08:44:38.517Z,1.75
2023-01-07T08:47:05.503Z,1.95
2023-01-07T08:49:32.631Z,3.13
2023-01-07T08:51:59.552Z,2.85
2023-01-07T08:54:26.564Z,1.88
2023-01-07T08:56:53.534Z,2.30
2023-01-07T08:59:20.492Z,1.73
2023-01-07T09:01:47.419Z,2.03
2023-01-07T09:04:14.299Z,1.73
2023-01-07T09:06:41.273Z,1.50
2023-01-07T09:09:08.253Z,1.75
2023-01-07T09:11:35.198Z,2.83
2023-01-07T09:14:02.547Z,2.25
2023-01-07T09:16:29.553Z,2.25
2023-01-07T09:18:56.635Z,3.03
2023-01-07T09:21:23.650Z,3.10
2023-01-07T09:23:50.622Z,2.70
2023-01-07T09:26:17.843Z,3.15
2023-01-07T09:28:44.728Z,2.92
2023-01-07T09:31:11.612Z,4.10
2023-01-07T09:33:40.908Z,3.10
2023-01-07T09:36:08.218Z,5.03
2023-01-07T09:38:35.132Z,5.07
2023-01-07T09:41:02.095Z,4.93
2023-01-07T09:43:59.949Z,4.63
2023-01-07T09:46:27.408Z,3.53
2023-01-07T09:48:58.083Z,4.50
2023-01-07T09:51:38.469Z,4.22
2023-01-07T09:54:14.422Z,4.80
2023-01-07T09:56:41.737Z,5.97
2023-01-07T09:59:12.188Z,3.80
2023-01-07T10:01:50.314Z,5.13
2023-01-07T10:04:36.425Z,4.50
2023-01-07T10:07:39.206Z,4.40
2023-01-07T10:10:17.302Z,4.30
2023-01-07T10:12:56.923Z,4.57
2023-01-07T10:15:35.691Z,3.30
2023-01-07T10:18:24.107Z,4.53
2023-01-07T10:20:59.933Z,4.20
2023-01-07T10:23:32.807Z,6.57
2023-01-07T10:26:02.123Z,3.92
2023-01-07T10:28:48.253Z,5.70
2023-01-07T10:31:24.635Z,5.10
2023-01-07T10:33:52.047Z,6.43
2023-01-07T10:36:38.415Z,5.63
2023-01-07T10:39:14.765Z,4.50
2023-01-07T10:41:56.355Z,4.90
2023-01-07T10:44:26.253Z,5.65
2023-01-07T10:47:23.879Z,4.50
2023-01-07T10:49:57.245Z,7.43
2023-01-07T10:52:29.790Z,4.82
2023-01-07T10:55:19.773Z,4.45
2023-01-07T10:57:48.753Z,4.63
2023-01-07T11:00:18.448Z,4.93
2023-01-07T11:03:00.941Z,4.72
2023-01-07T11:05:37.650Z,5.03
2023-01-07T11:08:12.051Z,4.13
2023-01-07T11:10:39.492Z,4.72
2023-01-07T11:13:35.630Z,6.78
2023-01-07T11:16:10.236Z,4.63
2023-01-07T11:18:54.065Z,4.15
2023-01-07T11:21:43.867Z,5.10
2023-01-07T11:24:31.242Z,5.05
2023-01-07T11:27:06.686Z,4.95
2023-01-07T11:29:38.979Z,6.50
2023-01-07T11:32:10.507Z,4.30
2023-01-07T11:35:15.666Z,5.63
2023-01-07T11:37:46.424Z,3.75
2023-01-07T11:40:13.239Z,4.65
2023-01-07T11:43:22.172Z,4.43
2023-01-07T11:46:20.930Z,4.45
2023-01-07T11:48:57.453Z,4.15
2023-01-07T11:51:25.317Z,5.47
2023-01-07T11:53:56.830Z,3.83
2023-01-07T11:56:26.135Z,5.15
2023-01-07T11:59:15.790Z,4.20
2023-01-07T12:01:48.865Z,5.28
2023-01-07T12:04:36.373Z,4.90
2023-01-07T12:07:24.897Z,4.40
2023-01-07T12:09:51.882Z,5.22
2023-01-07T12:12:31.800Z,4.53
2023-01-07T12:15:24.033Z,3.50
2023-01-07T12:17:58.668Z,3.08
2023-01-07T12:20:36.037Z,3.88
2023-01-07T12:23:13.186Z,3.67
2023-01-07T12:25:59.686Z,5.45
2023-01-07T12:28:38.864Z,6.15
2023-01-07T12:31:53.572Z,11.65
2023-01-07T12:34:40.684Z,8.63
2023-01-07T12:37:24.461Z,7.03
2023-01-07T12:39:56.971Z,5.80
2023-01-07T12:42:28.906Z,4.00
2023-01-07T12:45:04.160Z,4.45
2023-01-07T12:47:46.497Z,3.78
2023-01-07T12:50:48.897Z,5.50
2023-01-07T12:53:36.460Z,4.80
2023-01-07T12:56:27.441Z,6.15
2023-01-07T12:59:03.013Z,5.22
2023-01-07T13:01:51.301Z,4.93
2023-01-07T13:04:18.325Z,3.92
2023-01-07T13:07:04.308Z,3.88
2023-01-07T13:09:40.344Z,6.45
2023-01-07T13:12:43.505Z,4.95
2023-01-07T13:15:22.350Z,5.18
2023-01-07T13:17:57.868Z,4.07
2023-01-07T13:20:37.620Z,3.58
2023-01-07T13:23:06.230Z,3.17
2023-01-07T13:25:57.476Z,3.05
2023-01-07T13:28:39.482Z,3.22
2023-01-07T13:31:26.043Z,4.10
2023-01-07T13:34:26.918Z,3.78
2023-01-07T13:37:05.769Z,3.90
2023-01-07T13:39:40.131Z,3.15
2023-01-07T13:42:18.233Z,3.50
2023-01-07T13:44:50.939Z,2.55
2023-01-07T13:47:21.181Z,2.97
2023-01-07T13:49:57.667Z,3.72
2023-01-07T13:52:29.544Z,4.57
2023-01-07T13:55:00.127Z,3.72
2023-01-07T13:57:27.179Z,3.05
2023-01-07T13:59:56.083Z,3.33
2023-01-07T14:02:25.356Z,3.50
2023-01-07T14:05:24.532Z,3.67
2023-01-07T14:08:00.051Z,4.60
2023-01-07T14:10:36.093Z,2.92
2023-01-07T14:13:21.417Z,3.13
2023-01-07T14:16:00.187Z,3.05
2023-01-07T14:18:45.962Z,3.30
2023-01-07T14:21:31.599Z,5.72
2023-01-07T14:24:10.523Z,3.78
2023-01-07T14:27:11.928Z,4.00
2023-01-07T14:29:56.570Z,4.43
2023-01-07T14:32:35.135Z,2.75
2023-01-07T14:35:08.249Z,3.30
2023-01-07T14:40:32.936Z,4.35
2023-01-07T14:43:02.535Z,3.92
2023-01-07T14:45:49.820Z,3.05
2023-01-07T14:48:16.816Z,3.75
2023-01-07T14:50:56.774Z,4.60
2023-01-07T14:53:48.437Z,3.50
2023-01-07T14:56:38.015Z,3.63
2023-01-07T14:59:40.578Z,3.40
2023-01-07T15:02:44.940Z,3.92
2023-01-07T15:05:17.928Z,4.90
2023-01-07T15:07:51.991Z,3.75
2023-01-07T15:10:45.036Z,3.40
2023-01-07T15:13:36.304Z,6.35
2023-01-07T15:16:11.808Z,4.30
2023-01-07T15:18:50.793Z,3.50
2023-01-07T15:21:39.471Z,3.22
2023-01-07T15:24:32.055Z,6.25
2023-01-07T15:26:59.025Z,3.92
2023-01-07T15:29:28.974Z,3.70
2023-01-07T15:32:20.789Z,3.72
2023-01-07T15:34:47.854Z,5.47
2023-01-07T15:37:17.338Z,4.45
2023-01-07T15:39:52.164Z,5.25
2023-01-07T15:42:22.656Z,5.47
2023-01-07T15:44:54.985Z,5.43
2023-01-07T15:47:39.215Z,4.93
2023-01-07T15:50:29.341Z,5.43
2023-01-07T15:53:06.173Z,4.53
2023-01-07T15:55:38.758Z,5.38
2023-01-07T15:58:15.061Z,3.70
2023-01-07T16:00:42.587Z,4.28
2023-01-07T16:03:16.078Z,4.35
2023-01-07T16:05:44.241Z,4.95
2023-01-07T16:08:33.790Z,4.13
2023-01-07T16:11:02.082Z,4.35
2023-01-07T16:13:30.086Z,4.38
2023-01-07T16:16:03.595Z,3.95
2023-01-07T16:18:34.731Z,5.18
2023-01-07T16:21:09.677Z,5.22
2023-01-07T16:23:38.563Z,5.45
2023-01-07T16:26:31.718Z,4.93
2023-01-07T16:29:13.696Z,4.15
2023-01-07T16:31:40.850Z,5.35
2023-01-07T16:34:26.289Z,4.30
2023-01-07T16:36:58.217Z,4.57
2023-01-07T16:39:30.176Z,4.60
2023-01-07T16:42:16.755Z,5.25
2023-01-07T16:44:46.643Z,5.57
2023-01-07T16:47:23.768Z,4.28
2023-01-07T16:49:57.953Z,4.90
2023-01-07T16:52:52.124Z,7.10
2023-01-07T16:55:53.253Z,5.53
2023-01-07T16:58:50.039Z,7.55
2023-01-07T17:01:33.024Z,8.15
2023-01-07T17:04:02.282Z,6.03
2023-01-07T17:06:37.012Z,5.68
2023-01-07T17:09:04.436Z,5.43
2023-01-07T17:11:38.620Z,6.90
2023-01-07T17:14:34.687Z,5.38
2023-01-07T17:17:25.827Z,5.88
2023-01-07T17:20:09.536Z,5.18
2023-01-07T17:22:40.158Z,5.40
2023-01-07T17:25:24.675Z,4.80
2023-01-07T17:28:00.555Z,6.13
2023-01-07T17:30:34.270Z,6.15
2023-01-07T17:33:01.765Z,6.30
2023-01-07T17:35:28.883Z,5.95
2023-01-07T17:37:56.922Z,6.57
2023-01-07T17:40:24.086Z,6.78
2023-01-07T17:43:10.084Z,6.85
2023-01-07T17:45:37.218Z,6.20
2023-01-07T17:48:14.264Z,7.50
2023-01-07T17:50:42.077Z,5.97
2023-01-07T17:53:29.862Z,4.68
2023-01-07T17:56:00.046Z,6.93
2023-01-07T17:58:29.630Z,5.47
2023-01-07T18:00:58.484Z,8.63
2023-01-07T18:03:26.807Z,6.80
2023-01-07T18:06:01.192Z,6.32
2023-01-07T18:08:28.828Z,5.45
2023-01-07T18:11:16.087Z,8.95
2023-01-07T18:13:45.628Z,6.25
2023-01-07T18:16:14.700Z,7.57
2023-01-07T18:18:41.989Z,6.15
2023-01-07T18:21:11.884Z,6.43
2023-01-07T18:23:39.528Z,6.57
2023-01-07T18:26:07.258Z,4.97
2023-01-07T18:28:35.006Z,5.25
2023-01-07T18:31:04.397Z,4.90
2023-01-07T18:33:31.548Z,4.63
2023-01-07T18:35:58.762Z,5.85
2023-01-07T18:38:26.391Z,5.35
2023-01-07T18:40:55.630Z,5.95
2023-01-07T18:43:22.804Z,6.00
2023-01-07T18:45:50.074Z,6.03
2023-01-07T18:48:18.414Z,7.20
2023-01-07T18:50:48.696Z,8.38
2023-01-07T18:53:17.698Z,6.90
2023-01-07T18:55:58.341Z,6.82
2023-01-07T18:58:26.973Z,6.30
2023-01-07T19:00:54.248Z,6.07
2023-01-07T19:03:21.488Z,5.40
2023-01-07T19:05:49.778Z,8.38
2023-01-07T19:08:16.901Z,5.90
2023-01-07T19:10:45.099Z,7.85
2023-01-07T19:13:12.201Z,6.25
2023-01-07T19:15:41.084Z,5.50
2023-01-07T19:18:08.339Z,6.47
2023-01-07T19:20:36.409Z,5.57
2023-01-07T19:23:09.227Z,6.38
2023-01-07T19:25:36.185Z,7.18
2023-01-07T19:28:03.402Z,5.68
2023-01-07T19:30:30.455Z,5.95
2023-01-07T19:32:59.070Z,5.47
2023-01-07T19:35:26.858Z,5.97
2023-01-07T19:37:53.878Z,4.82
2023-01-07T19:40:20.740Z,6.10
2023-01-07T19:42:48.850Z,5.70
2023-01-07T19:45:16.027Z,5.05
2023-01-07T19:47:44.041Z,5.35
2023-01-07T19:50:11.560Z,5.57
2023-01-07T19:52:38.519Z,7.13
2023-01-07T19:55:06.137Z,5.72
2023-01-07T19:57:34.261Z,8.75
2023-01-07T20:00:01.908Z,6.95
2023-01-07T20:02:31.832Z,6.18
2023-01-07T20:04:59.003Z,5.78
2023-01-07T20:07:26.324Z,5.65
2023-01-07T20:09:53.367Z,6.35
2023-01-07T20:12:20.373Z,6.40
2023-01-07T20:14:47.852Z,6.53
2023-01-07T20:17:14.960Z,6.70
2023-01-07T20:19:41.980Z,5.57
2023-01-07T20:22:10.977Z,5.80
2023-01-07T20:24:38.263Z,7.18
2023-01-07T20:27:05.432Z,6.68
2023-01-07T20:29:32.499Z,4.93
2023-01-07T20:31:59.502Z,5.90
2023-01-07T20:34:26.734Z,6.55
2023-01-07T20:36:53.927Z,8.20
2023-01-07T20:39:20.945Z,7.40
2023-01-07T20:41:48.010Z,7.65
2023-01-07T20:44:15.161Z,8.63
2023-01-07T20:46:42.257Z,6.90
2023-01-07T20:49:10.309Z,6.80
2023-01-07T20:51:37.376Z,6.97
2023-01-07T20:54:04.540Z,7.40
2023-01-07T20:56:34.939Z,6.85
2023-01-07T20:59:02.515Z,7.70
2023-01-07T21:01:30.145Z,6.53
2023-01-07T21:03:57.660Z,8.98
2023-01-07T21:06:25.036Z,6.15
2023-01-07T21:08:52.167Z,7.75
2023-01-07T21:11:21.295Z,9.07
2023-01-07T21:13:49.366Z,7.63
2023-01-07T21:16:19.621Z,6.22
2023-01-07T21:18:47.259Z,8.57
2023-01-07T21:21:17.411Z,6.65
2023-01-07T21:23:46.856Z,7.20
2023-01-07T21:26:15.071Z,7.10
2023-01-07T21:28:44.414Z,7.45
2023-01-07T21:31:15.444Z,7.93
2023-01-07T21:33:43.189Z,6.78
2023-01-07T21:36:15.934Z,6.97
2023-01-07T21:38:43.635Z,6.32
2023-01-07T21:41:13.375Z,8.48
2023-01-07T21:43:40.947Z,6.80
2023-01-07T21:46:08.658Z,7.50
2023-01-07T21:48:37.953Z,7.20
2023-01-07T21:51:08.046Z,7.57
2023-01-07T21:53:35.907Z,8.55
2023-01-07T21:56:14.172Z,7.35
2023-01-07T21:58:41.979Z,8.10
2023-01-07T22:01:11.334Z,7.22
2023-01-07T22:03:39.008Z,6.07
2023-01-07T22:06:10.708Z,8.38
2023-01-07T22:08:37.713Z,7.38
2023-01-07T22:11:04.752Z,7.35
2023-01-07T22:13:31.844Z,8.27
2023-01-07T22:15:59.045Z,7.63
2023-01-07T22:18:26.130Z,7.43
2023-01-07T22:20:55.864Z,7.75
2023-01-07T22:23:23.246Z,7.45
2023-01-07T22:25:50.889Z,7.20
2023-01-07T22:28:19.988Z,7.40
2023-01-07T22:30:54.143Z,9.27
2023-01-07T22:33:22.790Z,7.97
2023-01-07T22:35:51.480Z,8.73
2023-01-07T22:38:21.529Z,6.72
2023-01-07T22:40:48.982Z,6.60
2023-01-07T22:43:19.703Z,6.80
2023-01-07T22:46:00.562Z,11.57
2023-01-07T22:48:31.835Z,8.30
2023-01-07T22:51:07.631Z,8.27
2023-01-07T22:53:34.756Z,8.60
2023-01-07T22:56:03.462Z,7.95
2023-01-07T22:58:30.397Z,8.07
2023-01-07T23:00:57.372Z,8.93
2023-01-07T23:03:25.213Z,7.00
2023-01-07T23:05:52.145Z,8.40
2023-01-07T23:08:19.483Z,9.93
2023-01-07T23:10:46.531Z,9.95
2023-01-07T23:13:13.559Z,7.65
2023-01-07T23:15:40.569Z,8.68
2023-01-07T23:18:09.707Z,9.25
2023-01-07T23:20:42.089Z,7.93
2023-01-07T23:23:10.571Z,6.30
2023-01-07T23:25:37.775Z,8.02
2023-01-07T23:28:04.693Z,8.43
2023-01-07T23:30:31.752Z,8.93
2023-01-07T23:32:58.554Z,7.90
2023-01-07T23:35:25.376Z,8.63
2023-01-07T23:37:52.230Z,7.57
2023-01-07T23:40:19.216Z,8.63
2023-01-07T23:42:49.036Z,7.55
2023-01-07T23:45:16.924Z,8.80
2023-01-07T23:47:45.067Z,8.10
2023-01-07T23:50:12.618Z,7.40
2023-01-07T23:52:40.210Z,9.68
2023-01-07T23:55:07.715Z,9.25
2023-01-07T23:57:34.546Z,10.05
